createdAt,value
2023-02-14T00:01:42.265Z,68.92
2023-02-14T00:04:10.209Z,70.81
2023-02-14T00:06:39.536Z,70.63
2023-02-14T00:09:08.273Z,72.11
2023-02-14T00:11:37.529Z,71.56
2023-02-14T00:14:23.744Z,70.84
2023-02-14T00:16:52.076Z,70.22
2023-02-14T00:19:22.522Z,69.92
2023-02-14T00:21:50.909Z,69.45
2023-02-14T00:24:21.677Z,68.56
2023-02-14T00:26:52.494Z,68.75
2023-02-14T00:29:23.086Z,68.79
2023-02-14T00:31:51.342Z,68.62
2023-02-14T00:34:20.179Z,68.49
2023-02-14T00:36:49.258Z,68.85
2023-02-14T00:39:18.627Z,68.54
2023-02-14T00:41:46.682Z,69.31
2023-02-14T00:44:16.054Z,70.67
2023-02-14T00:46:44.569Z,69.24
2023-02-14T00:49:12.457Z,69.37
2023-02-14T00:51:40.917Z,69.54
2023-02-14T00:54:08.892Z,69.34
2023-02-14T00:56:36.725Z,69.80
2023-02-14T00:59:04.657Z,69.38
2023-02-14T01:01:33.917Z,69.32
2023-02-14T01:04:01.728Z,68.93
2023-02-14T01:06:29.507Z,69.14
2023-02-14T01:08:57.519Z,69.20
2023-02-14T01:11:26.971Z,69.99
2023-02-14T01:13:57.413Z,70.19
2023-02-14T01:16:28.810Z,69.79
2023-02-14T01:19:00.416Z,69.80
2023-02-14T01:21:31.539Z,69.99
2023-02-14T01:24:03.256Z,70.10
2023-02-14T01:26:31.624Z,70.04
2023-02-14T01:28:59.586Z,70.17
2023-02-14T01:31:30.850Z,69.29
2023-02-14T01:34:01.354Z,69.72
2023-02-14T01:36:34.445Z,69.31
2023-02-14T01:39:05.467Z,69.83
2023-02-14T01:41:37.025Z,69.90
2023-02-14T01:44:08.282Z,71.47
2023-02-14T01:46:38.643Z,70.79
2023-02-14T01:49:16.488Z,69.95
2023-02-14T01:51:53.438Z,69.71
2023-02-14T01:54:26.920Z,69.78
2023-02-14T01:57:03.343Z,70.00
2023-02-14T01:59:40.851Z,70.33
2023-02-14T02:02:09.342Z,70.62
2023-02-14T02:04:43.993Z,70.06
2023-02-14T02:07:18.700Z,71.38
2023-02-14T02:09:52.357Z,70.92
2023-02-14T02:12:20.843Z,70.02
2023-02-14T02:14:53.809Z,70.40
2023-02-14T02:17:41.579Z,69.19
2023-02-14T02:20:56.716Z,68.87
2023-02-14T02:24:05.046Z,68.75
2023-02-14T02:27:26.103Z,68.70
2023-02-14T02:30:47.467Z,69.24
2023-02-14T02:34:02.901Z,69.61
2023-02-14T02:36:50.288Z,70.21
2023-02-14T02:39:37.279Z,70.11
2023-02-14T02:42:16.440Z,70.60
2023-02-14T02:45:04.571Z,70.59
2023-02-14T02:47:39.252Z,70.59
2023-02-14T02:50:42.409Z,70.94
2023-02-14T02:53:24.085Z,70.36
2023-02-14T02:56:16.207Z,69.68
2023-02-14T02:58:49.509Z,69.75
2023-02-14T03:01:24.731Z,69.09
2023-02-14T03:04:18.058Z,70.04
2023-02-14T03:06:46.189Z,69.76
2023-02-14T03:09:58.597Z,68.99
2023-02-14T03:13:15.278Z,68.72
2023-02-14T03:16:15.852Z,68.38
2023-02-14T03:19:23.034Z,69.21
2023-02-14T03:22:00.067Z,68.63
2023-02-14T03:24:45.957Z,69.08
2023-02-14T03:27:22.836Z,68.89
2023-02-14T03:30:04.726Z,68.94
2023-02-14T03:32:43.639Z,69.14
2023-02-14T03:35:22.052Z,69.30
2023-02-14T03:37:58.367Z,68.91
2023-02-14T03:40:37.265Z,69.02
2023-02-14T03:43:11.974Z,68.86
2023-02-14T03:45:47.111Z,68.27
2023-02-14T03:48:17.575Z,68.40
2023-02-14T03:50:51.067Z,68.45
2023-02-14T03:53:24.725Z,68.78
2023-02-14T03:56:04.008Z,68.77
2023-02-14T03:58:38.532Z,68.43
2023-02-14T04:01:14.412Z,69.10
2023-02-14T04:03:44.312Z,69.02
2023-02-14T04:06:12.300Z,69.05
2023-02-14T04:08:40.526Z,68.54
2023-02-14T04:11:09.813Z,68.13
2023-02-14T04:13:39.243Z,68.64
2023-02-14T04:16:08.472Z,68.62
2023-02-14T04:18:53.983Z,68.51
2023-02-14T04:21:21.800Z,67.97
2023-02-14T04:23:49.622Z,70.62
2023-02-14T04:26:18.728Z,69.41
2023-02-14T04:28:46.570Z,68.55
2023-02-14T04:31:14.509Z,68.65
2023-02-14T04:33:44.799Z,68.59
2023-02-14T04:36:12.939Z,68.34
2023-02-14T04:38:41.119Z,68.38
2023-02-14T04:41:08.914Z,68.85
2023-02-14T04:43:38.073Z,68.22
2023-02-14T04:46:05.978Z,68.42
2023-02-14T04:48:33.782Z,68.93
2023-02-14T04:51:01.848Z,68.13
2023-02-14T04:53:29.753Z,70.05
2023-02-14T04:55:57.527Z,69.50
2023-02-14T04:58:25.307Z,68.56
2023-02-14T05:00:54.540Z,68.55
2023-02-14T05:03:22.372Z,68.38
2023-02-14T05:05:50.185Z,68.62
2023-02-14T05:08:18.081Z,69.03
2023-02-14T05:10:45.827Z,68.27
2023-02-14T05:13:14.336Z,68.55
2023-02-14T05:15:42.088Z,69.27
2023-02-14T05:18:11.249Z,69.62
2023-02-14T05:20:39.145Z,69.52
2023-02-14T05:23:13.422Z,68.87
2023-02-14T05:25:41.341Z,70.01
2023-02-14T05:28:09.237Z,69.80
2023-02-14T05:30:38.674Z,69.07
2023-02-14T05:33:06.760Z,68.77
2023-02-14T05:35:35.913Z,68.38
2023-02-14T05:38:03.968Z,68.92
2023-02-14T05:40:32.953Z,69.23
2023-02-14T05:43:00.804Z,68.88
2023-02-14T05:45:28.661Z,68.88
2023-02-14T05:47:56.615Z,69.10
2023-02-14T05:50:24.415Z,68.90
2023-02-14T05:52:53.605Z,69.01
2023-02-14T05:55:21.736Z,68.20
2023-02-14T05:57:49.557Z,69.14
2023-02-14T06:00:19.125Z,68.28
2023-02-14T06:02:46.926Z,69.19
2023-02-14T06:05:17.672Z,69.08
2023-02-14T06:07:50.193Z,69.53
2023-02-14T06:10:21.562Z,69.83
2023-02-14T06:12:51.194Z,69.66
2023-02-14T06:15:19.651Z,69.68
2023-02-14T06:17:53.959Z,69.64
2023-02-14T06:20:24.111Z,69.57
2023-02-14T06:22:52.132Z,69.35
2023-02-14T06:25:22.559Z,69.57
2023-02-14T06:27:50.685Z,69.33
2023-02-14T06:30:19.760Z,69.22
2023-02-14T06:32:47.536Z,70.45
2023-02-14T06:35:16.538Z,70.01
2023-02-14T06:37:45.245Z,70.17
2023-02-14T06:40:15.248Z,69.62
2023-02-14T06:42:44.482Z,69.22
2023-02-14T06:45:12.496Z,71.27
2023-02-14T06:47:41.271Z,73.59
2023-02-14T06:50:11.671Z,72.78
2023-02-14T06:52:42.088Z,72.58
2023-02-14T06:55:11.683Z,72.54
2023-02-14T06:57:40.183Z,73.68
2023-02-14T07:00:11.172Z,73.41
2023-02-14T07:02:39.114Z,73.14
2023-02-14T07:05:07.426Z,73.53
2023-02-14T07:07:35.287Z,74.03
2023-02-14T07:10:03.102Z,73.22
2023-02-14T07:12:42.275Z,74.43
2023-02-14T07:15:14.830Z,74.19
2023-02-14T07:17:42.673Z,75.14
2023-02-14T07:20:12.756Z,74.68
2023-02-14T07:22:40.987Z,74.96
2023-02-14T07:25:09.463Z,74.63
2023-02-14T07:27:37.464Z,75.28
2023-02-14T07:30:07.698Z,74.07
2023-02-14T07:32:38.049Z,74.20
2023-02-14T07:35:06.635Z,72.89
2023-02-14T07:37:35.266Z,71.80
2023-02-14T07:40:05.343Z,71.71
2023-02-14T07:42:34.036Z,71.17
2023-02-14T07:45:12.535Z,69.81
2023-02-14T07:47:51.415Z,70.23
2023-02-14T07:50:19.803Z,69.94
2023-02-14T07:52:47.742Z,68.00
2023-02-14T07:55:16.400Z,67.64
2023-02-14T07:57:44.222Z,64.66
2023-02-14T08:00:14.424Z,65.15
2023-02-14T08:02:42.427Z,62.86
2023-02-14T08:05:11.943Z,59.99
2023-02-14T08:07:39.814Z,57.64
2023-02-14T08:10:09.752Z,58.24
2023-02-14T08:12:56.285Z,57.19
2023-02-14T08:15:41.644Z,55.92
2023-02-14T08:18:09.662Z,55.00
2023-02-14T08:20:38.894Z,55.87
2023-02-14T08:23:06.699Z,54.59
2023-02-14T08:25:34.506Z,53.92
2023-02-14T08:28:04.043Z,54.21
2023-02-14T08:30:32.435Z,55.55
2023-02-14T08:33:00.264Z,56.30
2023-02-14T08:35:28.159Z,56.38
2023-02-14T08:37:57.301Z,54.74
2023-02-14T08:40:25.362Z,54.92
2023-02-14T08:42:53.209Z,54.62
2023-02-14T08:45:21.723Z,53.20
2023-02-14T08:47:49.590Z,51.48
2023-02-14T08:50:20.282Z,52.38
2023-02-14T08:52:48.137Z,51.99
2023-02-14T08:55:17.328Z,49.58
2023-02-14T08:57:45.132Z,47.45
2023-02-14T09:00:14.186Z,49.60
2023-02-14T09:02:42.164Z,50.57
2023-02-14T09:05:10.807Z,49.66
2023-02-14T09:07:38.685Z,51.86
2023-02-14T09:10:08.640Z,50.39
2023-02-14T09:12:40.028Z,49.63
2023-02-14T09:15:09.326Z,49.40
2023-02-14T09:17:37.956Z,48.58
2023-02-14T09:20:07.707Z,47.76
2023-02-14T09:22:36.001Z,49.50
2023-02-14T09:25:03.838Z,48.91
2023-02-14T09:27:32.308Z,48.55
2023-02-14T09:30:01.493Z,49.95
2023-02-14T09:32:29.874Z,46.55
2023-02-14T09:34:57.823Z,50.31
2023-02-14T09:37:25.601Z,48.50
2023-02-14T09:39:53.398Z,46.58
2023-02-14T09:42:41.729Z,47.10
2023-02-14T09:45:15.722Z,46.02
2023-02-14T09:47:51.882Z,45.94
2023-02-14T09:50:26.521Z,47.00
2023-02-14T09:53:02.445Z,48.56
2023-02-14T09:55:43.524Z,48.19
2023-02-14T09:58:19.067Z,46.87
2023-02-14T10:00:58.431Z,44.84
2023-02-14T10:04:17.977Z,45.44
2023-02-14T10:06:58.006Z,46.24
2023-02-14T10:09:54.172Z,42.26
2023-02-14T10:12:27.784Z,43.98
2023-02-14T10:15:00.301Z,44.46
2023-02-14T10:17:42.351Z,45.69
2023-02-14T10:20:23.291Z,47.47
2023-02-14T10:23:04.335Z,45.62
2023-02-14T10:25:43.688Z,45.48
2023-02-14T10:28:16.948Z,47.41
2023-02-14T10:30:59.231Z,46.06
2023-02-14T10:33:36.039Z,46.50
2023-02-14T10:36:16.894Z,48.32
2023-02-14T10:38:59.675Z,47.94
2023-02-14T10:41:49.048Z,48.51
2023-02-14T10:44:32.230Z,49.56
2023-02-14T10:47:10.477Z,50.54
2023-02-14T10:49:52.260Z,49.77
2023-02-14T10:52:28.352Z,48.24
2023-02-14T10:55:01.091Z,48.72
2023-02-14T10:57:34.968Z,49.49
2023-02-14T11:00:07.652Z,49.91
2023-02-14T11:02:40.077Z,50.25
2023-02-14T11:05:25.388Z,49.01
2023-02-14T11:07:53.300Z,48.81
2023-02-14T11:10:28.015Z,49.42
2023-02-14T11:12:55.939Z,48.88
2023-02-14T11:15:28.553Z,48.21
2023-02-14T11:18:23.708Z,49.16
2023-02-14T11:21:08.670Z,46.82
2023-02-14T11:23:41.198Z,46.25
2023-02-14T11:26:24.250Z,47.37
2023-02-14T11:28:57.352Z,43.35
2023-02-14T11:31:33.959Z,43.64
2023-02-14T11:34:05.484Z,43.31
2023-02-14T11:36:42.899Z,41.85
2023-02-14T11:39:28.506Z,40.08
2023-02-14T11:41:59.057Z,38.86
2023-02-14T11:44:30.009Z,38.84
2023-02-14T11:47:17.668Z,37.52
2023-02-14T11:49:57.387Z,39.41
2023-02-14T11:52:29.594Z,37.83
2023-02-14T11:54:58.755Z,36.69
2023-02-14T11:57:33.270Z,37.30
2023-02-14T12:00:12.416Z,37.44
2023-02-14T12:02:45.730Z,39.48
2023-02-14T12:05:22.007Z,37.28
2023-02-14T12:07:55.370Z,39.23
2023-02-14T12:10:29.995Z,38.04
2023-02-14T12:13:02.595Z,37.68
2023-02-14T12:15:36.729Z,39.50
2023-02-14T12:18:43.837Z,39.06
2023-02-14T12:21:43.469Z,41.63
2023-02-14T12:24:31.603Z,41.41
2023-02-14T12:27:17.702Z,42.17
2023-02-14T12:29:49.844Z,39.57
2023-02-14T12:32:25.304Z,40.90
2023-02-14T12:35:01.698Z,41.24
2023-02-14T12:37:48.822Z,40.82
2023-02-14T12:40:27.628Z,44.28
2023-02-14T12:43:16.957Z,44.68
2023-02-14T12:46:08.136Z,42.76
2023-02-14T12:49:02.942Z,43.47
2023-02-14T12:51:40.758Z,41.66
2023-02-14T12:54:40.406Z,39.82
2023-02-14T12:57:28.405Z,40.51
2023-02-14T13:00:14.749Z,41.51
2023-02-14T13:03:33.688Z,39.69
2023-02-14T13:06:13.667Z,40.43
2023-02-14T13:09:02.164Z,40.49
2023-02-14T13:11:44.735Z,40.06
2023-02-14T13:14:32.927Z,39.37
2023-02-14T13:17:12.691Z,38.58
2023-02-14T13:19:51.547Z,36.90
2023-02-14T13:22:24.998Z,37.21
2023-02-14T13:24:59.984Z,36.78
2023-02-14T13:27:36.359Z,36.81
2023-02-14T13:30:15.468Z,38.48
2023-02-14T13:32:49.375Z,38.87
2023-02-14T13:35:21.030Z,37.91
2023-02-14T13:37:54.752Z,37.37
2023-02-14T13:40:26.768Z,39.07
2023-02-14T13:42:57.650Z,36.43
2023-02-14T13:45:56.959Z,38.16
2023-02-14T13:48:27.447Z,39.29
2023-02-14T13:51:01.480Z,39.23
2023-02-14T13:53:40.205Z,36.46
2023-02-14T13:56:34.876Z,35.72
2023-02-14T13:59:06.901Z,36.80
2023-02-14T14:01:42.787Z,34.48
2023-02-14T14:04:36.214Z,34.41
2023-02-14T14:07:25.625Z,36.08
2023-02-14T14:09:57.258Z,36.22
2023-02-14T14:12:44.510Z,37.41
2023-02-14T14:15:20.655Z,36.90
2023-02-14T14:18:42.744Z,36.70
2023-02-14T14:21:17.473Z,37.24
2023-02-14T14:23:45.512Z,36.53
2023-02-14T14:26:37.077Z,38.69
2023-02-14T14:29:17.183Z,37.86
2023-02-14T14:31:46.679Z,36.46
2023-02-14T14:34:19.750Z,36.59
2023-02-14T14:36:48.211Z,36.31
2023-02-14T14:39:29.520Z,36.17
2023-02-14T14:42:07.078Z,37.02
2023-02-14T14:44:37.098Z,36.14
2023-02-14T14:47:05.122Z,35.71
2023-02-14T14:49:34.745Z,36.48
2023-02-14T14:52:02.624Z,37.73
2023-02-14T14:54:32.980Z,37.92
2023-02-14T14:57:04.121Z,39.94
2023-02-14T14:59:35.589Z,40.71
2023-02-14T15:02:05.456Z,41.64
2023-02-14T15:04:36.534Z,43.87
2023-02-14T15:07:21.241Z,43.87
2023-02-14T15:09:49.172Z,43.61
2023-02-14T15:12:41.239Z,44.62
2023-02-14T15:15:13.695Z,44.67
2023-02-14T15:17:44.561Z,44.52
2023-02-14T15:20:21.382Z,46.18
2023-02-14T15:22:52.911Z,45.70
2023-02-14T15:25:24.335Z,46.05
2023-02-14T15:27:52.656Z,46.65
2023-02-14T15:30:29.672Z,46.68
2023-02-14T15:32:59.086Z,48.32
2023-02-14T15:35:34.072Z,48.32
2023-02-14T15:38:06.870Z,48.26
2023-02-14T15:40:38.758Z,48.10
2023-02-14T15:43:22.831Z,48.51
2023-02-14T15:45:56.399Z,48.09
2023-02-14T15:48:30.857Z,48.70
2023-02-14T15:51:06.285Z,49.64
2023-02-14T15:53:43.255Z,49.34
2023-02-14T15:56:24.779Z,49.70
2023-02-14T15:59:01.571Z,49.68
2023-02-14T16:01:31.209Z,49.57
2023-02-14T16:04:03.754Z,50.14
2023-02-14T16:06:39.713Z,50.56
2023-02-14T16:09:25.465Z,50.56
2023-02-14T16:11:54.081Z,50.41
2023-02-14T16:14:32.583Z,50.53
2023-02-14T16:17:03.602Z,50.47
2023-02-14T16:19:41.669Z,50.69
2023-02-14T16:22:13.183Z,49.85
2023-02-14T16:24:41.978Z,50.46
2023-02-14T16:27:13.246Z,50.13
2023-02-14T16:29:41.456Z,49.78
2023-02-14T16:32:20.750Z,50.52
2023-02-14T16:34:49.614Z,50.33
2023-02-14T16:37:25.332Z,51.66
2023-02-14T16:39:57.641Z,52.40
2023-02-14T16:42:25.831Z,51.75
2023-02-14T16:44:53.863Z,52.16
2023-02-14T16:47:22.544Z,51.78
2023-02-14T16:49:52.996Z,53.71
2023-02-14T16:52:26.503Z,53.69
2023-02-14T16:54:55.053Z,54.76
2023-02-14T16:57:28.805Z,53.21
2023-02-14T16:59:57.850Z,53.43
2023-02-14T17:02:28.238Z,53.08
2023-02-14T17:04:56.610Z,52.77
2023-02-14T17:07:26.250Z,54.62
2023-02-14T17:10:03.080Z,53.67
2023-02-14T17:12:36.151Z,54.91
2023-02-14T17:15:11.959Z,54.82
2023-02-14T17:17:40.144Z,55.14
2023-02-14T17:20:09.850Z,56.11
2023-02-14T17:22:39.161Z,56.72
2023-02-14T17:25:07.732Z,55.25
2023-02-14T17:27:35.571Z,55.16
2023-02-14T17:30:03.582Z,56.39
2023-02-14T17:32:31.454Z,55.69
2023-02-14T17:35:00.988Z,55.98
2023-02-14T17:37:29.467Z,56.74
2023-02-14T17:39:58.979Z,56.54
2023-02-14T17:42:26.805Z,57.11
2023-02-14T17:44:54.581Z,57.08
2023-02-14T17:47:22.379Z,56.90
2023-02-14T17:49:50.190Z,56.60
2023-02-14T17:52:18.479Z,56.79
2023-02-14T17:54:49.884Z,58.38
2023-02-14T17:57:34.449Z,57.67
2023-02-14T18:00:02.378Z,56.87
2023-02-14T18:02:30.262Z,57.65
2023-02-14T18:04:58.490Z,57.90
2023-02-14T18:07:26.374Z,58.43
2023-02-14T18:09:54.252Z,57.89
2023-02-14T18:12:22.117Z,58.60
2023-02-14T18:14:53.183Z,58.25
2023-02-14T18:17:20.964Z,58.92
2023-02-14T18:19:48.762Z,59.11
2023-02-14T18:22:16.825Z,59.24
2023-02-14T18:24:44.627Z,59.44
2023-02-14T18:27:15.793Z,59.16
2023-02-14T18:29:43.610Z,59.88
2023-02-14T18:32:12.791Z,59.70
2023-02-14T18:34:40.712Z,59.78
2023-02-14T18:37:08.518Z,61.01
2023-02-14T18:39:36.277Z,60.79
2023-02-14T18:42:05.388Z,60.89
2023-02-14T18:44:33.455Z,61.69
2023-02-14T18:47:02.605Z,62.15
2023-02-14T18:49:31.745Z,61.65
2023-02-14T18:51:59.544Z,61.36
2023-02-14T18:54:27.408Z,61.22
2023-02-14T18:56:55.178Z,61.25
2023-02-14T18:59:23.079Z,62.49
2023-02-14T19:01:50.963Z,62.78
2023-02-14T19:04:18.791Z,61.91
2023-02-14T19:06:48.253Z,61.96
2023-02-14T19:09:18.679Z,61.76
2023-02-14T19:11:47.160Z,61.95
2023-02-14T19:14:14.943Z,62.57
2023-02-14T19:16:50.297Z,62.05
2023-02-14T19:19:19.635Z,63.36
2023-02-14T19:21:49.481Z,62.26
2023-02-14T19:24:19.384Z,64.08
2023-02-14T19:26:48.465Z,63.35
2023-02-14T19:29:20.030Z,62.41
2023-02-14T19:31:51.984Z,63.36
2023-02-14T19:34:23.486Z,63.44
2023-02-14T19:36:54.550Z,62.42
2023-02-14T19:39:24.395Z,62.54
2023-02-14T19:41:52.737Z,63.22
2023-02-14T19:44:20.533Z,62.92
2023-02-14T19:46:48.734Z,63.62
2023-02-14T19:49:20.272Z,63.04
2023-02-14T19:51:52.185Z,63.47
2023-02-14T19:54:27.347Z,63.57
2023-02-14T19:56:56.264Z,62.88
2023-02-14T19:59:24.450Z,63.60
2023-02-14T20:01:54.648Z,62.99
2023-02-14T20:04:26.180Z,63.42
2023-02-14T20:06:56.264Z,62.63
2023-02-14T20:09:25.528Z,62.72
2023-02-14T20:11:57.000Z,62.68
2023-02-14T20:14:28.714Z,63.18
2023-02-14T20:16:59.551Z,63.96
2023-02-14T20:19:32.108Z,64.19
2023-02-14T20:22:02.745Z,63.40
2023-02-14T20:24:33.015Z,63.47
2023-02-14T20:27:02.301Z,64.04
2023-02-14T20:29:30.555Z,63.25
2023-02-14T20:32:03.349Z,63.68
2023-02-14T20:34:31.503Z,63.30
2023-02-14T20:37:00.741Z,63.73
2023-02-14T20:39:31.465Z,63.02
2023-02-14T20:41:59.626Z,63.14
2023-02-14T20:44:28.133Z,63.63
2023-02-14T20:46:57.244Z,64.32
2023-02-14T20:49:28.451Z,65.16
2023-02-14T20:51:56.903Z,65.52
2023-02-14T20:54:29.020Z,64.27
2023-02-14T20:56:58.481Z,65.07
2023-02-14T20:59:28.466Z,64.68
2023-02-14T21:01:58.290Z,64.44
2023-02-14T21:04:26.832Z,64.40
2023-02-14T21:06:54.727Z,63.81
2023-02-14T21:09:22.511Z,63.89
2023-02-14T21:11:53.753Z,64.29
2023-02-14T21:14:21.606Z,64.22
2023-02-14T21:16:49.498Z,65.06
2023-02-14T21:19:17.523Z,66.79
2023-02-14T21:21:45.626Z,67.48
2023-02-14T21:24:15.820Z,66.55
2023-02-14T21:26:44.767Z,65.81
2023-02-14T21:29:14.115Z,65.01
2023-02-14T21:31:42.400Z,64.84
2023-02-14T21:34:10.402Z,64.85
2023-02-14T21:36:38.232Z,66.09
2023-02-14T21:39:08.177Z,66.62
2023-02-14T21:41:38.007Z,65.79
2023-02-14T21:44:07.204Z,65.69
2023-02-14T21:46:41.013Z,65.31
2023-02-14T21:49:26.769Z,65.38
2023-02-14T21:51:54.538Z,65.46
2023-02-14T21:54:22.382Z,66.62
2023-02-14T21:56:50.270Z,66.43
2023-02-14T21:59:18.057Z,65.55
2023-02-14T22:01:47.284Z,66.94
2023-02-14T22:04:15.123Z,66.01
2023-02-14T22:06:44.081Z,66.33
2023-02-14T22:09:17.349Z,67.69
2023-02-14T22:11:47.415Z,69.56
2023-02-14T22:14:15.916Z,68.47
2023-02-14T22:16:43.848Z,67.74
2023-02-14T22:19:16.314Z,66.71
2023-02-14T22:21:45.064Z,66.48
2023-02-14T22:24:13.551Z,65.49
2023-02-14T22:26:42.037Z,66.17
2023-02-14T22:29:12.583Z,67.59
2023-02-14T22:31:42.600Z,66.84
2023-02-14T22:34:17.578Z,66.84
2023-02-14T22:36:45.440Z,66.66
2023-02-14T22:39:16.328Z,66.80
2023-02-14T22:41:44.172Z,65.88
2023-02-14T22:44:13.637Z,66.30
2023-02-14T22:46:41.637Z,66.56
2023-02-14T22:49:09.683Z,66.25
2023-02-14T22:51:41.419Z,67.56
2023-02-14T22:54:13.398Z,67.10
2023-02-14T22:56:43.458Z,66.17
2023-02-14T22:59:18.263Z,66.89
2023-02-14T23:01:47.473Z,66.08
2023-02-14T23:04:17.918Z,66.31
2023-02-14T23:06:47.056Z,66.71
2023-02-14T23:09:16.432Z,67.48
2023-02-14T23:11:46.141Z,66.45
2023-02-14T23:14:33.684Z,66.62
2023-02-14T23:17:19.448Z,66.82
2023-02-14T23:20:06.253Z,67.73
2023-02-14T23:22:38.397Z,67.35
2023-02-14T23:25:08.814Z,67.51
2023-02-14T23:27:39.559Z,67.64
2023-02-14T23:30:11.606Z,67.13
2023-02-14T23:32:39.693Z,66.80
2023-02-14T23:35:08.399Z,67.01
2023-02-14T23:37:38.432Z,67.42
2023-02-14T23:40:08.423Z,67.61
2023-02-14T23:42:36.284Z,67.65
2023-02-14T23:45:18.269Z,68.06
2023-02-14T23:47:46.050Z,68.03
2023-02-14T23:50:13.864Z,68.38
2023-02-14T23:52:44.496Z,68.49
2023-02-14T23:55:12.452Z,68.99
2023-02-14T23:57:40.663Z,69.34
